createdAt,value
2019-01-18T00:00:03.661Z,0.00
2019-01-18T00:01:03.588Z,0.00
2019-01-18T00:02:03.518Z,0.00
2019-01-18T00:03:03.441Z,0.00
2019-01-18T00:04:03.368Z,0.00
2019-01-18T00:05:03.294Z,0.00
2019-01-18T00:06:03.235Z,0.00
2019-01-18T00:07:03.132Z,0.00
2019-01-18T00:08:03.059Z,0.00
2019-01-18T00:09:02.982Z,0.00
2019-01-18T00:10:02.935Z,0.00
2019-01-18T00:11:02.847Z,0.00
2019-01-18T00:12:02.764Z,0.00
2019-01-18T00:13:02.704Z,0.00
2019-01-18T00:14:02.625Z,0.00
2019-01-18T00:15:02.547Z,0.00
2019-01-18T00:16:02.473Z,0.00
2019-01-18T00:17:02.401Z,0.00
2019-01-18T00:18:02.316Z,0.00
2019-01-18T00:19:02.255Z,0.00
2019-01-18T00:20:02.164Z,0.00
2019-01-18T00:21:02.098Z,0.00
2019-01-18T00:22:02.028Z,0.00
2019-01-18T00:23:01.951Z,0.00
2019-01-18T00:24:01.878Z,0.00
2019-01-18T00:25:01.805Z,0.00
2019-01-18T00:26:01.734Z,0.00
2019-01-18T00:27:01.643Z,0.00
2019-01-18T00:28:01.577Z,0.00
2019-01-18T00:29:01.519Z,0.00
2019-01-18T00:30:01.478Z,0.00
2019-01-18T00:31:01.348Z,0.00
2019-01-18T00:32:01.290Z,0.00
2019-01-18T00:33:01.194Z,0.00
2019-01-18T00:34:01.139Z,0.00
2019-01-18T00:35:01.056Z,0.00
2019-01-18T00:36:00.994Z,0.00
2019-01-18T00:37:00.913Z,0.00
2019-01-18T00:38:00.830Z,0.00
2019-01-18T00:39:00.750Z,0.00
2019-01-18T00:40:00.688Z,0.00
2019-01-18T00:41:00.600Z,0.00
2019-01-18T00:42:00.535Z,0.00
2019-01-18T00:43:00.464Z,0.00
2019-01-18T00:44:00.378Z,0.00
2019-01-18T00:45:00.308Z,0.00
2019-01-18T00:46:00.241Z,0.00
2019-01-18T00:47:00.162Z,0.00
2019-01-18T00:48:00.093Z,0.00
2019-01-18T00:49:00.019Z,0.00
2019-01-18T00:49:59.930Z,0.00
2019-01-18T00:50:59.856Z,0.00
2019-01-18T00:51:59.793Z,0.00
2019-01-18T00:52:59.717Z,0.00
2019-01-18T00:53:59.628Z,0.00
2019-01-18T00:54:59.564Z,0.00
2019-01-18T00:55:59.482Z,0.00
2019-01-18T00:56:59.413Z,0.00
2019-01-18T00:57:59.349Z,0.00
2019-01-18T00:58:59.267Z,0.00
2019-01-18T00:59:59.218Z,0.00
2019-01-18T01:00:59.112Z,0.00
2019-01-18T01:01:59.050Z,0.00
2019-01-18T01:02:58.976Z,0.00
2019-01-18T01:03:58.903Z,0.00
2019-01-18T01:04:58.828Z,0.00
2019-01-18T01:05:58.743Z,0.00
2019-01-18T01:06:58.662Z,0.00
2019-01-18T01:07:58.596Z,0.00
2019-01-18T01:08:58.525Z,0.00
2019-01-18T01:09:58.454Z,0.00
2019-01-18T01:10:58.378Z,0.00
2019-01-18T01:11:58.305Z,0.00
2019-01-18T01:12:58.225Z,0.00
2019-01-18T01:13:58.158Z,0.00
2019-01-18T01:14:58.064Z,0.00
2019-01-18T01:15:58.006Z,0.00
2019-01-18T01:16:57.925Z,0.00
2019-01-18T01:17:57.844Z,0.00
2019-01-18T01:18:57.775Z,0.00
2019-01-18T01:19:57.712Z,0.00
2019-01-18T01:20:57.628Z,0.00
2019-01-18T01:21:57.555Z,0.00
2019-01-18T01:22:57.479Z,0.00
2019-01-18T01:23:57.409Z,0.00
2019-01-18T01:24:57.337Z,0.00
2019-01-18T01:25:57.252Z,0.00
2019-01-18T01:26:57.174Z,0.00
2019-01-18T01:27:57.097Z,0.00
2019-01-18T01:28:57.024Z,0.00
2019-01-18T01:29:56.958Z,0.00
2019-01-18T01:30:56.880Z,0.00
2019-01-18T01:31:56.804Z,0.00
2019-01-18T01:32:56.724Z,0.00
2019-01-18T01:33:56.667Z,0.00
2019-01-18T01:34:56.589Z,0.00
2019-01-18T01:35:56.515Z,0.00
2019-01-18T01:36:56.437Z,0.00
2019-01-18T01:37:56.354Z,0.00
2019-01-18T01:38:56.278Z,0.00
2019-01-18T01:39:56.214Z,0.00
2019-01-18T01:40:56.147Z,0.00
2019-01-18T01:41:56.063Z,0.00
2019-01-18T01:42:55.977Z,0.00
2019-01-18T01:43:55.917Z,0.00
2019-01-18T01:44:55.845Z,0.00
2019-01-18T01:45:55.762Z,0.00
2019-01-18T01:46:55.680Z,0.00
2019-01-18T01:47:55.620Z,0.00
2019-01-18T01:48:55.540Z,0.00
2019-01-18T01:49:55.481Z,0.00
2019-01-18T01:50:55.382Z,0.00
2019-01-18T01:51:55.314Z,0.00
2019-01-18T01:52:55.234Z,0.00
2019-01-18T01:53:55.168Z,0.00
2019-01-18T01:54:55.094Z,0.00
2019-01-18T01:55:55.026Z,0.00
2019-01-18T01:56:54.947Z,0.00
2019-01-18T01:57:54.867Z,0.00
2019-01-18T01:58:54.796Z,0.00
2019-01-18T01:59:54.722Z,0.00
2019-01-18T02:00:54.646Z,0.00
2019-01-18T02:01:54.560Z,0.00
2019-01-18T02:02:54.500Z,0.00
2019-01-18T02:03:54.424Z,0.00
2019-01-18T02:04:54.347Z,0.00
2019-01-18T02:05:54.268Z,0.00
2019-01-18T02:06:54.194Z,0.00
2019-01-18T02:07:54.145Z,0.00
2019-01-18T02:08:54.057Z,0.00
2019-01-18T02:09:53.975Z,0.00
2019-01-18T02:10:53.903Z,0.00
2019-01-18T02:11:53.833Z,0.00
2019-01-18T02:12:53.749Z,0.00
2019-01-18T02:13:53.666Z,0.00
2019-01-18T02:14:53.594Z,0.00
2019-01-18T02:15:53.514Z,0.00
2019-01-18T02:16:53.464Z,0.00
2019-01-18T02:17:53.378Z,0.00
2019-01-18T02:18:53.303Z,0.00
2019-01-18T02:19:53.216Z,0.00
2019-01-18T02:20:53.148Z,0.00
2019-01-18T02:21:53.089Z,0.00
2019-01-18T02:22:53.021Z,0.00
2019-01-18T02:23:52.933Z,0.00
2019-01-18T02:24:52.856Z,0.00
2019-01-18T02:25:52.783Z,0.00
2019-01-18T02:26:52.690Z,0.00
2019-01-18T02:27:52.617Z,0.00
2019-01-18T02:28:52.561Z,0.00
2019-01-18T02:29:56.554Z,0.00
2019-01-18T02:30:52.408Z,0.00
2019-01-18T02:31:52.334Z,0.00
2019-01-18T02:32:52.255Z,0.00
2019-01-18T02:33:52.179Z,0.00
2019-01-18T02:34:52.116Z,0.00
2019-01-18T02:35:52.042Z,0.00
2019-01-18T02:36:51.962Z,0.00
2019-01-18T02:37:51.871Z,0.00
2019-01-18T02:38:51.816Z,0.00
2019-01-18T02:39:51.745Z,0.00
2019-01-18T02:40:51.670Z,0.00
2019-01-18T02:41:51.585Z,0.00
2019-01-18T02:42:51.555Z,0.00
2019-01-18T02:43:51.440Z,0.00
2019-01-18T02:44:51.359Z,0.00
2019-01-18T02:45:51.278Z,0.00
2019-01-18T02:46:51.217Z,0.00
2019-01-18T02:47:51.126Z,0.00
2019-01-18T02:48:51.060Z,0.00
2019-01-18T02:49:50.991Z,0.00
2019-01-18T02:50:50.919Z,0.00
2019-01-18T02:51:50.829Z,0.00
2019-01-18T02:52:50.750Z,0.00
2019-01-18T02:53:50.692Z,0.00
2019-01-18T02:54:50.623Z,0.00
2019-01-18T02:55:50.541Z,0.00
2019-01-18T02:56:50.464Z,0.00
2019-01-18T02:57:50.396Z,0.00
2019-01-18T02:58:50.323Z,0.00
2019-01-18T02:59:50.239Z,0.00
2019-01-18T03:00:50.164Z,0.00
2019-01-18T03:01:50.082Z,0.00
2019-01-18T03:02:50.006Z,0.00
2019-01-18T03:03:49.934Z,0.00
2019-01-18T03:04:49.859Z,0.00
2019-01-18T03:05:49.799Z,0.00
2019-01-18T03:06:49.719Z,0.00
2019-01-18T03:07:49.630Z,0.00
2019-01-18T03:08:49.570Z,0.00
2019-01-18T03:09:49.492Z,0.00
2019-01-18T03:10:49.445Z,0.00
2019-01-18T03:11:49.382Z,0.00
2019-01-18T03:12:49.258Z,0.00
2019-01-18T03:13:49.201Z,0.00
2019-01-18T03:14:49.110Z,0.00
2019-01-18T03:15:49.037Z,0.00
2019-01-18T03:16:48.974Z,0.00
2019-01-18T03:17:48.891Z,0.00
2019-01-18T03:18:48.827Z,0.00
2019-01-18T03:19:48.744Z,0.00
2019-01-18T03:20:48.657Z,0.00
2019-01-18T03:21:48.580Z,0.00
2019-01-18T03:22:48.513Z,0.00
2019-01-18T03:23:48.475Z,0.00
2019-01-18T03:24:48.358Z,0.00
2019-01-18T03:25:48.284Z,0.00
2019-01-18T03:26:48.207Z,0.00
2019-01-18T03:27:48.133Z,0.00
2019-01-18T03:28:48.068Z,0.00
2019-01-18T03:29:48.020Z,0.00
2019-01-18T03:30:47.904Z,0.00
2019-01-18T03:31:47.857Z,0.00
2019-01-18T03:32:47.765Z,0.00
2019-01-18T03:33:47.694Z,0.00
2019-01-18T03:34:47.620Z,0.00
2019-01-18T03:35:47.545Z,0.00
2019-01-18T03:36:47.462Z,0.00
2019-01-18T03:37:47.386Z,0.00
2019-01-18T03:38:47.321Z,0.00
2019-01-18T03:39:47.244Z,0.00
2019-01-18T03:40:47.161Z,0.00
2019-01-18T03:41:47.078Z,0.00
2019-01-18T03:42:47.028Z,0.00
2019-01-18T03:43:46.953Z,0.00
2019-01-18T03:44:46.871Z,0.00
2019-01-18T03:45:46.789Z,0.00
2019-01-18T03:46:46.720Z,0.00
2019-01-18T03:47:46.644Z,0.00
2019-01-18T03:48:46.558Z,0.00
2019-01-18T03:49:46.502Z,0.00
2019-01-18T03:50:46.499Z,0.00
2019-01-18T03:51:46.338Z,0.00
2019-01-18T03:52:46.271Z,0.00
2019-01-18T03:53:46.195Z,0.00
2019-01-18T03:54:46.107Z,0.00
2019-01-18T03:55:46.036Z,0.00
2019-01-18T03:56:45.980Z,0.00
2019-01-18T03:57:45.893Z,0.00
2019-01-18T03:58:45.830Z,0.00
2019-01-18T03:59:45.743Z,0.00
2019-01-18T04:00:45.652Z,0.00
2019-01-18T04:01:45.580Z,0.00
2019-01-18T04:02:45.513Z,0.00
2019-01-18T04:03:45.447Z,0.00
2019-01-18T04:04:45.374Z,0.00
2019-01-18T04:05:45.282Z,0.00
2019-01-18T04:06:45.211Z,0.00
2019-01-18T04:07:45.137Z,0.00
2019-01-18T04:08:45.074Z,0.00
2019-01-18T04:09:44.990Z,0.00
2019-01-18T04:10:44.904Z,0.00
2019-01-18T04:11:44.832Z,0.00
2019-01-18T04:12:44.765Z,0.00
2019-01-18T04:13:44.693Z,0.00
2019-01-18T04:14:44.618Z,0.00
2019-01-18T04:15:44.542Z,0.00
2019-01-18T04:16:44.458Z,0.00
2019-01-18T04:17:44.375Z,0.00
2019-01-18T04:18:44.312Z,0.00
2019-01-18T04:19:44.233Z,0.00
2019-01-18T04:20:44.165Z,0.00
2019-01-18T04:21:44.090Z,0.00
2019-01-18T04:22:44.013Z,0.00
2019-01-18T04:23:43.942Z,0.00
2019-01-18T04:24:43.868Z,0.00
2019-01-18T04:25:43.780Z,0.00
2019-01-18T04:26:43.713Z,0.00
2019-01-18T04:27:43.640Z,0.00
2019-01-18T04:28:43.547Z,0.00
2019-01-18T04:29:43.476Z,0.00
2019-01-18T04:30:43.405Z,0.00
2019-01-18T04:31:43.325Z,0.00
2019-01-18T04:32:43.257Z,0.00
2019-01-18T04:33:43.189Z,0.00
2019-01-18T04:34:43.113Z,0.00
2019-01-18T04:35:43.037Z,0.00
2019-01-18T04:36:42.948Z,0.00
2019-01-18T04:37:42.872Z,0.00
2019-01-18T04:38:42.799Z,0.00
2019-01-18T04:39:42.721Z,0.00
2019-01-18T04:40:42.654Z,0.00
2019-01-18T04:41:42.585Z,0.00
2019-01-18T04:42:42.501Z,0.00
2019-01-18T04:43:42.420Z,0.00
2019-01-18T04:44:42.357Z,0.00
2019-01-18T04:45:42.282Z,0.00
2019-01-18T04:46:42.205Z,0.00
2019-01-18T04:47:42.148Z,0.00
2019-01-18T04:48:42.062Z,0.00
2019-01-18T04:49:41.976Z,0.00
2019-01-18T04:50:41.890Z,0.00
2019-01-18T04:51:41.818Z,0.00
2019-01-18T04:52:41.751Z,0.00
2019-01-18T04:53:41.691Z,0.00
2019-01-18T04:54:41.619Z,0.00
2019-01-18T04:55:41.547Z,0.00
2019-01-18T04:56:41.444Z,0.00
2019-01-18T04:57:41.383Z,0.00
2019-01-18T04:58:41.301Z,0.00
2019-01-18T04:59:41.228Z,0.00
2019-01-18T05:00:41.683Z,0.00
2019-01-18T05:01:41.075Z,0.00
2019-01-18T05:02:40.990Z,0.00
2019-01-18T05:03:40.912Z,0.00
2019-01-18T05:04:40.845Z,0.00
2019-01-18T05:05:40.772Z,0.00
2019-01-18T05:06:40.693Z,0.00
2019-01-18T05:07:40.614Z,0.00
2019-01-18T05:08:40.549Z,0.00
2019-01-18T05:09:40.471Z,0.00
2019-01-18T05:10:40.409Z,0.00
2019-01-18T05:11:40.326Z,0.00
2019-01-18T05:12:40.255Z,0.00
2019-01-18T05:13:40.167Z,0.00
2019-01-18T05:14:40.102Z,0.00
2019-01-18T05:15:40.023Z,0.00
2019-01-18T05:16:39.940Z,0.00
2019-01-18T05:17:39.866Z,0.00
2019-01-18T05:18:39.809Z,0.00
2019-01-18T05:19:39.716Z,0.00
2019-01-18T05:20:39.646Z,0.00
2019-01-18T05:21:39.581Z,0.00
2019-01-18T05:22:39.496Z,0.00
2019-01-18T05:23:39.423Z,0.00
2019-01-18T05:24:39.342Z,0.00
2019-01-18T05:25:39.278Z,0.00
2019-01-18T05:26:39.186Z,0.00
2019-01-18T05:27:39.112Z,0.00
2019-01-18T05:28:39.051Z,0.00
2019-01-18T05:29:38.972Z,0.00
2019-01-18T05:30:38.883Z,0.00
2019-01-18T05:31:38.812Z,0.00
2019-01-18T05:32:38.745Z,0.00
2019-01-18T05:33:38.675Z,0.00
2019-01-18T05:34:38.602Z,0.00
2019-01-18T05:35:38.519Z,0.00
2019-01-18T05:36:38.431Z,0.00
2019-01-18T05:37:38.363Z,0.00
2019-01-18T05:38:38.300Z,0.00
2019-01-18T05:39:38.214Z,0.00
2019-01-18T05:40:38.145Z,0.00
2019-01-18T05:41:38.073Z,0.00
2019-01-18T05:42:38.001Z,0.00
2019-01-18T05:43:37.923Z,0.00
2019-01-18T05:44:37.849Z,0.00
2019-01-18T05:45:37.758Z,0.00
2019-01-18T05:46:37.696Z,0.00
2019-01-18T05:47:37.617Z,0.00
2019-01-18T05:48:37.532Z,0.00
2019-01-18T05:49:37.455Z,0.00
2019-01-18T05:50:37.392Z,0.00
2019-01-18T05:51:37.312Z,0.00
2019-01-18T05:52:37.264Z,0.00
2019-01-18T05:53:37.172Z,0.00
2019-01-18T05:54:37.095Z,0.00
2019-01-18T05:55:37.019Z,0.00
2019-01-18T05:56:36.967Z,0.00
2019-01-18T05:57:36.852Z,0.00
2019-01-18T05:58:36.800Z,0.00
2019-01-18T05:59:36.708Z,0.00
2019-01-18T06:00:36.642Z,0.00
2019-01-18T06:01:36.573Z,0.00
2019-01-18T06:02:36.497Z,0.00
2019-01-18T06:03:36.406Z,0.00
2019-01-18T06:04:36.345Z,0.00
2019-01-18T06:05:36.262Z,0.00
2019-01-18T06:06:36.191Z,0.00
2019-01-18T06:07:36.120Z,0.00
2019-01-18T06:08:36.030Z,0.00
2019-01-18T06:09:35.972Z,0.00
2019-01-18T06:10:35.894Z,0.00
2019-01-18T06:11:35.816Z,0.00
2019-01-18T06:12:35.735Z,0.00
2019-01-18T06:13:35.665Z,0.00
2019-01-18T06:14:35.582Z,0.00
2019-01-18T06:15:35.539Z,0.00
2019-01-18T06:16:35.440Z,0.00
2019-01-18T06:17:35.365Z,0.00
2019-01-18T06:18:35.282Z,0.00
2019-01-18T06:19:35.206Z,0.00
2019-01-18T06:20:35.139Z,0.00
2019-01-18T06:21:35.065Z,0.00
2019-01-18T06:22:34.989Z,0.00
2019-01-18T06:23:34.918Z,0.00
2019-01-18T06:24:34.830Z,0.00
2019-01-18T06:25:34.753Z,0.00
2019-01-18T06:26:34.733Z,0.00
2019-01-18T06:27:34.624Z,0.00
2019-01-18T06:28:34.542Z,0.00
2019-01-18T06:29:34.465Z,0.00
2019-01-18T06:30:34.391Z,0.00
2019-01-18T06:31:34.309Z,0.00
2019-01-18T06:32:34.241Z,0.00
2019-01-18T06:33:34.178Z,0.00
2019-01-18T06:34:34.155Z,0.00
2019-01-18T06:35:34.013Z,0.00
2019-01-18T06:36:33.926Z,0.00
2019-01-18T06:37:33.850Z,0.00
2019-01-18T06:38:33.823Z,0.00
2019-01-18T06:39:33.702Z,0.00
2019-01-18T06:40:33.637Z,0.00
2019-01-18T06:41:33.567Z,0.00
2019-01-18T06:42:33.481Z,0.00
2019-01-18T06:43:33.414Z,0.00
2019-01-18T06:44:33.328Z,0.00
2019-01-18T06:45:33.252Z,0.00
2019-01-18T06:46:33.192Z,0.00
2019-01-18T06:47:33.099Z,0.00
2019-01-18T06:48:33.039Z,0.00
2019-01-18T06:49:32.959Z,0.00
2019-01-18T06:50:32.870Z,0.00
2019-01-18T06:51:32.800Z,0.00
2019-01-18T06:52:32.742Z,0.00
2019-01-18T06:53:32.656Z,0.00
2019-01-18T06:54:32.583Z,0.00
2019-01-18T06:55:32.510Z,0.00
2019-01-18T06:56:32.584Z,0.00
2019-01-18T06:57:32.346Z,0.00
2019-01-18T06:58:32.287Z,0.00
2019-01-18T06:59:32.198Z,0.00
2019-01-18T07:00:32.131Z,0.00
2019-01-18T07:01:32.054Z,0.00
2019-01-18T07:02:31.983Z,0.00
2019-01-18T07:03:31.904Z,0.00
2019-01-18T07:04:31.818Z,0.00
2019-01-18T07:05:31.736Z,0.00
2019-01-18T07:06:31.677Z,0.00
2019-01-18T07:07:31.599Z,0.00
2019-01-18T07:08:31.517Z,0.00
2019-01-18T07:09:31.442Z,0.00
2019-01-18T07:10:31.372Z,0.00
2019-01-18T07:11:31.291Z,0.00
2019-01-18T07:12:31.224Z,0.00
2019-01-18T07:13:31.150Z,0.00
2019-01-18T07:14:31.079Z,0.00
2019-01-18T07:15:31.007Z,0.00
2019-01-18T07:16:30.929Z,0.00
2019-01-18T07:17:30.845Z,0.00
2019-01-18T07:18:30.774Z,0.00
2019-01-18T07:19:30.696Z,0.00
2019-01-18T07:20:30.625Z,0.00
2019-01-18T07:21:30.583Z,0.00
2019-01-18T07:22:30.473Z,0.00
2019-01-18T07:23:30.399Z,0.00
2019-01-18T07:24:30.311Z,0.00
2019-01-18T07:25:30.253Z,0.00
2019-01-18T07:26:30.164Z,0.00
2019-01-18T07:27:30.098Z,0.00
2019-01-18T07:28:30.021Z,0.00
2019-01-18T07:29:29.947Z,5.63
2019-01-18T07:30:29.874Z,5.63
2019-01-18T07:31:29.802Z,5.63
2019-01-18T07:32:29.725Z,5.63
2019-01-18T07:33:29.636Z,5.63
2019-01-18T07:34:29.580Z,5.63
2019-01-18T07:35:29.488Z,5.63
2019-01-18T07:36:29.433Z,5.63
2019-01-18T07:37:29.347Z,5.63
2019-01-18T07:38:29.275Z,5.63
2019-01-18T07:39:29.180Z,5.63
2019-01-18T07:40:29.120Z,5.63
2019-01-18T07:41:29.045Z,5.63
2019-01-18T07:42:28.968Z,11.25
2019-01-18T07:43:28.894Z,11.25
2019-01-18T07:44:28.809Z,11.25
2019-01-18T07:45:28.738Z,11.25
2019-01-18T07:46:28.669Z,11.25
2019-01-18T07:47:28.595Z,16.88
2019-01-18T07:48:28.504Z,16.88
2019-01-18T07:49:28.457Z,16.88
2019-01-18T07:50:28.359Z,22.50
2019-01-18T07:51:28.277Z,16.88
2019-01-18T07:52:28.217Z,16.88
2019-01-18T07:53:28.145Z,22.50
2019-01-18T07:54:28.060Z,16.88
2019-01-18T07:55:27.982Z,16.88
2019-01-18T07:56:27.917Z,22.50
2019-01-18T07:57:27.844Z,28.13
2019-01-18T07:58:27.771Z,33.75
2019-01-18T07:59:27.693Z,33.75
2019-01-18T08:00:27.625Z,33.75
2019-01-18T08:01:27.549Z,33.75
2019-01-18T08:02:27.462Z,33.75
2019-01-18T08:03:27.382Z,22.50
2019-01-18T08:04:27.317Z,22.50
2019-01-18T08:05:27.253Z,22.50
2019-01-18T08:06:27.172Z,22.50
2019-01-18T08:07:27.095Z,22.50
2019-01-18T08:08:27.016Z,16.88
2019-01-18T08:09:26.944Z,16.88
2019-01-18T08:10:26.873Z,16.88
2019-01-18T08:11:26.797Z,16.88
2019-01-18T08:12:26.727Z,16.88
2019-01-18T08:13:26.639Z,16.88
2019-01-18T08:14:26.567Z,16.88
2019-01-18T08:15:26.498Z,16.88
2019-01-18T08:16:26.426Z,22.50
2019-01-18T08:17:26.353Z,22.50
2019-01-18T08:18:26.281Z,22.50
2019-01-18T08:19:26.196Z,22.50
2019-01-18T08:20:26.130Z,22.50
2019-01-18T08:21:26.057Z,22.50
2019-01-18T08:22:25.983Z,22.50
2019-01-18T08:23:25.909Z,22.50
2019-01-18T08:24:25.818Z,28.13
2019-01-18T08:25:25.746Z,28.13
2019-01-18T08:26:25.679Z,28.13
2019-01-18T08:27:25.606Z,22.50
2019-01-18T08:28:25.541Z,22.50
2019-01-18T08:29:25.450Z,22.50
2019-01-18T08:30:25.387Z,28.13
2019-01-18T08:31:28.899Z,28.13
2019-01-18T08:32:25.235Z,28.13
2019-01-18T08:33:25.168Z,28.13
2019-01-18T08:34:25.085Z,28.13
2019-01-18T08:35:25.011Z,28.13
2019-01-18T08:36:24.926Z,28.13
2019-01-18T08:37:24.865Z,28.13
2019-01-18T08:38:24.769Z,28.13
2019-01-18T08:39:24.718Z,28.13
2019-01-18T08:40:24.631Z,28.13
2019-01-18T08:41:24.559Z,28.13
2019-01-18T08:42:24.480Z,28.13
2019-01-18T08:43:24.421Z,28.13
2019-01-18T08:44:24.338Z,28.13
2019-01-18T08:45:24.267Z,28.13
2019-01-18T08:46:24.190Z,28.13
2019-01-18T08:47:24.154Z,28.13
2019-01-18T08:48:24.034Z,28.13
2019-01-18T08:49:23.964Z,28.13
2019-01-18T08:50:23.884Z,28.13
2019-01-18T08:51:23.821Z,28.13
2019-01-18T08:52:23.744Z,28.13
2019-01-18T08:53:23.667Z,28.13
2019-01-18T08:54:23.600Z,28.13
2019-01-18T08:55:23.519Z,28.13
2019-01-18T08:56:23.434Z,33.75
2019-01-18T08:57:23.362Z,33.75
2019-01-18T08:58:23.299Z,33.75
2019-01-18T08:59:23.224Z,33.75
2019-01-18T09:00:23.136Z,39.38
2019-01-18T09:01:23.060Z,39.38
2019-01-18T09:02:22.990Z,45.00
2019-01-18T09:03:22.932Z,45.00
2019-01-18T09:04:22.847Z,50.63
2019-01-18T09:05:22.781Z,50.63
2019-01-18T09:06:22.702Z,50.63
2019-01-18T09:07:22.631Z,56.25
2019-01-18T09:08:22.554Z,56.25
2019-01-18T09:09:22.481Z,56.25
2019-01-18T09:10:22.392Z,56.25
2019-01-18T09:11:22.317Z,56.25
2019-01-18T09:12:22.256Z,56.25
2019-01-18T09:13:22.178Z,56.25
2019-01-18T09:14:22.096Z,56.25
2019-01-18T09:15:22.026Z,50.63
2019-01-18T09:16:21.964Z,50.63
2019-01-18T09:17:21.880Z,50.63
2019-01-18T09:18:21.809Z,56.25
2019-01-18T09:19:21.731Z,56.25
2019-01-18T09:20:21.676Z,56.25
2019-01-18T09:21:21.574Z,56.25
2019-01-18T09:22:21.513Z,56.25
2019-01-18T09:23:21.438Z,56.25
2019-01-18T09:24:21.362Z,61.88
2019-01-18T09:25:21.293Z,61.88
2019-01-18T09:26:21.202Z,61.88
2019-01-18T09:27:21.152Z,56.25
2019-01-18T09:28:21.067Z,50.63
2019-01-18T09:29:20.997Z,45.00
2019-01-18T09:30:20.904Z,45.00
2019-01-18T09:31:20.832Z,45.00
2019-01-18T09:32:20.768Z,45.00
2019-01-18T09:33:20.698Z,45.00
2019-01-18T09:34:20.617Z,45.00
2019-01-18T09:35:20.554Z,45.00
2019-01-18T09:36:20.467Z,45.00
2019-01-18T09:37:20.384Z,50.63
2019-01-18T09:38:20.312Z,50.63
2019-01-18T09:39:20.243Z,50.63
2019-01-18T09:40:20.177Z,50.63
2019-01-18T09:41:20.106Z,56.25
2019-01-18T09:42:20.028Z,61.88
2019-01-18T09:43:19.950Z,73.13
2019-01-18T09:44:19.883Z,78.75
2019-01-18T09:45:19.812Z,84.38
2019-01-18T09:46:19.730Z,101.25
2019-01-18T09:47:19.657Z,112.50
2019-01-18T09:48:19.587Z,106.88
2019-01-18T09:49:19.498Z,118.13
2019-01-18T09:50:19.438Z,129.38
2019-01-18T09:51:19.364Z,135.00
2019-01-18T09:52:19.285Z,146.25
2019-01-18T09:53:19.213Z,146.25
2019-01-18T09:54:19.139Z,151.88
2019-01-18T09:55:19.071Z,123.75
2019-01-18T09:56:18.980Z,129.38
2019-01-18T09:57:18.920Z,140.63
2019-01-18T09:58:18.850Z,151.88
2019-01-18T09:59:18.756Z,151.88
2019-01-18T10:00:18.704Z,118.13
2019-01-18T10:01:18.621Z,95.63
2019-01-18T10:02:18.567Z,90.00
2019-01-18T10:03:18.466Z,90.00
2019-01-18T10:04:18.423Z,95.63
2019-01-18T10:05:18.333Z,95.63
2019-01-18T10:06:18.262Z,101.25
2019-01-18T10:07:18.196Z,112.50
2019-01-18T10:08:18.103Z,101.25
2019-01-18T10:09:18.030Z,101.25
2019-01-18T10:10:17.974Z,135.00
2019-01-18T10:11:17.889Z,140.63
2019-01-18T10:12:17.829Z,146.25
2019-01-18T10:13:17.752Z,129.38
2019-01-18T10:14:17.678Z,135.00
2019-01-18T10:15:17.605Z,140.63
2019-01-18T10:16:17.521Z,135.00
2019-01-18T10:17:17.449Z,140.63
2019-01-18T10:18:17.383Z,146.25
2019-01-18T10:19:17.314Z,106.88
2019-01-18T10:20:17.233Z,106.88
2019-01-18T10:21:17.160Z,101.25
2019-01-18T10:22:17.082Z,118.13
2019-01-18T10:23:17.016Z,118.13
2019-01-18T10:24:16.952Z,106.88
2019-01-18T10:25:16.875Z,157.50
2019-01-18T10:26:16.800Z,146.25
2019-01-18T10:27:16.722Z,146.25
2019-01-18T10:28:16.657Z,163.13
2019-01-18T10:29:16.591Z,163.13
2019-01-18T10:30:16.518Z,140.63
2019-01-18T10:31:16.446Z,168.75
2019-01-18T10:32:16.381Z,168.75
2019-01-18T10:33:16.286Z,168.75
2019-01-18T10:34:16.232Z,168.75
2019-01-18T10:35:16.158Z,168.75
2019-01-18T10:36:16.071Z,168.75
2019-01-18T10:37:16.006Z,168.75
2019-01-18T10:38:15.930Z,168.75
2019-01-18T10:39:15.873Z,168.75
2019-01-18T10:40:15.797Z,168.75
2019-01-18T10:41:15.727Z,174.38
2019-01-18T10:42:15.665Z,180.00
2019-01-18T10:43:15.582Z,180.00
2019-01-18T10:44:15.507Z,185.63
2019-01-18T10:45:15.426Z,185.63
2019-01-18T10:46:15.378Z,174.38
2019-01-18T10:47:15.293Z,180.00
2019-01-18T10:48:15.235Z,180.00
2019-01-18T10:49:15.157Z,168.75
2019-01-18T10:50:15.072Z,168.75
2019-01-18T10:51:15.010Z,163.13
2019-01-18T10:52:14.940Z,140.63
2019-01-18T10:53:14.863Z,140.63
2019-01-18T10:54:14.797Z,140.63
2019-01-18T10:55:14.730Z,157.50
2019-01-18T10:56:14.642Z,151.88
2019-01-18T10:57:14.570Z,157.50
2019-01-18T10:58:14.516Z,151.88
2019-01-18T10:59:14.428Z,135.00
2019-01-18T11:00:14.376Z,140.63
2019-01-18T11:01:14.303Z,135.00
2019-01-18T11:02:14.228Z,129.38
2019-01-18T11:03:14.155Z,129.38
2019-01-18T11:04:14.072Z,129.38
2019-01-18T11:05:13.996Z,129.38
2019-01-18T11:06:13.940Z,129.38
2019-01-18T11:07:13.872Z,123.75
2019-01-18T11:08:17.366Z,123.75
2019-01-18T11:09:13.714Z,129.38
2019-01-18T11:10:13.688Z,135.00
2019-01-18T11:11:13.587Z,140.63
2019-01-18T11:12:13.515Z,140.63
2019-01-18T11:13:13.442Z,140.63
2019-01-18T11:14:13.370Z,140.63
2019-01-18T11:15:13.301Z,146.25
2019-01-18T11:16:13.214Z,146.25
2019-01-18T11:17:13.141Z,146.25
2019-01-18T11:18:13.077Z,140.63
2019-01-18T11:19:13.737Z,140.63
2019-01-18T11:20:12.937Z,146.25
2019-01-18T11:21:12.873Z,151.88
2019-01-18T11:22:12.818Z,151.88
2019-01-18T11:23:12.743Z,146.25
2019-01-18T11:24:12.656Z,140.63
2019-01-18T11:25:12.584Z,135.00
2019-01-18T11:26:12.514Z,129.38
2019-01-18T11:27:12.462Z,123.75
2019-01-18T11:28:12.361Z,123.75
2019-01-18T11:29:12.299Z,118.13
2019-01-18T11:30:12.223Z,112.50
2019-01-18T11:31:12.157Z,118.13
2019-01-18T11:32:13.805Z,118.13
2019-01-18T11:33:12.004Z,118.13
2019-01-18T11:34:11.933Z,118.13
2019-01-18T11:35:11.857Z,118.13
2019-01-18T11:36:11.799Z,118.13
2019-01-18T11:37:11.729Z,118.13
2019-01-18T11:38:11.642Z,118.13
2019-01-18T11:39:11.589Z,118.13
2019-01-18T11:40:11.513Z,118.13
2019-01-18T11:41:11.439Z,118.13
2019-01-18T11:42:12.737Z,118.13
2019-01-18T11:43:11.298Z,118.13
2019-01-18T11:44:11.259Z,118.13
2019-01-18T11:45:11.140Z,123.75
2019-01-18T11:46:11.068Z,123.75
2019-01-18T11:47:10.998Z,123.75
2019-01-18T11:48:10.943Z,123.75
2019-01-18T11:49:10.868Z,123.75
2019-01-18T11:50:10.794Z,123.75
2019-01-18T11:51:10.716Z,123.75
2019-01-18T11:52:10.641Z,129.38
2019-01-18T11:53:10.564Z,129.38
2019-01-18T11:54:10.501Z,129.38
2019-01-18T11:55:10.433Z,129.38
2019-01-18T11:56:10.350Z,129.38
2019-01-18T11:57:10.278Z,135.00
2019-01-18T11:58:10.207Z,135.00
2019-01-18T11:59:10.164Z,135.00
2019-01-18T12:00:10.090Z,135.00
2019-01-18T12:01:10.005Z,140.63
2019-01-18T12:02:15.162Z,140.63
2019-01-18T12:03:09.847Z,140.63
2019-01-18T12:04:09.805Z,146.25
2019-01-18T12:05:09.714Z,146.25
2019-01-18T12:06:09.643Z,146.25
2019-01-18T12:07:09.569Z,151.88
2019-01-18T12:08:09.497Z,151.88
2019-01-18T12:09:09.422Z,157.50
2019-01-18T12:10:09.355Z,151.88
2019-01-18T12:11:09.286Z,151.88
2019-01-18T12:12:09.217Z,151.88
2019-01-18T12:13:09.124Z,146.25
2019-01-18T12:14:09.075Z,140.63
2019-01-18T12:15:09.002Z,140.63
2019-01-18T12:16:08.924Z,146.25
2019-01-18T12:17:08.852Z,129.38
2019-01-18T12:18:08.778Z,123.75
2019-01-18T12:19:08.719Z,112.50
2019-01-18T12:20:08.630Z,106.88
2019-01-18T12:21:08.571Z,101.25
2019-01-18T12:22:08.483Z,95.63
2019-01-18T12:23:08.412Z,95.63
2019-01-18T12:24:08.361Z,95.63
2019-01-18T12:25:08.281Z,90.00
2019-01-18T12:26:08.198Z,90.00
2019-01-18T12:27:08.129Z,90.00
2019-01-18T12:28:08.064Z,84.38
2019-01-18T12:29:07.989Z,84.38
2019-01-18T12:30:07.924Z,84.38
2019-01-18T12:31:07.849Z,84.38
2019-01-18T12:32:07.785Z,78.75
2019-01-18T12:33:07.696Z,78.75
2019-01-18T12:34:07.636Z,78.75
2019-01-18T12:35:07.565Z,78.75
2019-01-18T12:36:07.485Z,84.38
2019-01-18T12:37:07.409Z,84.38
2019-01-18T12:38:07.357Z,84.38
2019-01-18T12:39:07.286Z,84.38
2019-01-18T12:40:07.206Z,84.38
2019-01-18T12:41:07.127Z,84.38
2019-01-18T12:42:07.052Z,84.38
2019-01-18T12:43:06.998Z,84.38
2019-01-18T12:44:06.914Z,90.00
2019-01-18T12:45:06.845Z,90.00
2019-01-18T12:46:06.769Z,90.00
2019-01-18T12:47:06.705Z,90.00
2019-01-18T12:48:06.629Z,90.00
2019-01-18T12:49:06.557Z,95.63
2019-01-18T12:50:06.469Z,101.25
2019-01-18T12:51:06.399Z,101.25
2019-01-18T12:52:06.333Z,101.25
2019-01-18T12:53:06.262Z,101.25
2019-01-18T12:54:06.195Z,101.25
2019-01-18T12:55:06.122Z,106.88
2019-01-18T12:56:06.053Z,112.50
2019-01-18T12:57:05.990Z,118.13
2019-01-18T12:58:05.909Z,123.75
2019-01-18T12:59:05.833Z,118.13
2019-01-18T13:00:05.750Z,112.50
2019-01-18T13:01:05.699Z,112.50